sensor_id;sensor_type;location;lat;lon;timestamp;pressure;altitude;pressure_sealevel;temperature;humidity
49779;BME280;36217;60.232;24.776;2023-01-25T00:00:41;101969.64;;;0.28;100.00
49779;BME280;36217;60.232;24.776;2023-01-25T00:03:08;101961.24;;;0.38;100.00
49779;BME280;36217;60.232;24.776;2023-01-25T00:05:35;101962.94;;;0.41;100.00
49779;BME280;36217;60.232;24.776;2023-01-25T00:08:02;101976.93;;;0.32;100.00
49779;BME280;36217;60.232;24.776;2023-01-25T00:10:29;101973.31;;;0.57;100.00
49779;BME280;36217;60.232;24.776;2023-01-25T00:12:56;101982.36;;;0.36;100.00
49779;BME280;36217;60.232;24.776;2023-01-25T00:15:24;101993.90;;;0.40;100.00
49779;BME280;36217;60.232;24.776;2023-01-25T00:17:51;102000.98;;;0.52;100.00
49779;BME280;36217;60.232;24.776;2023-01-25T00:20:18;102016.44;;;0.63;100.00
49779;BME280;36217;60.232;24.776;2023-01-25T00:22:45;102003.17;;;0.44;100.00
49779;BME280;36217;60.232;24.776;2023-01-25T00:25:13;101998.10;;;0.42;100.00
49779;BME280;36217;60.232;24.776;2023-01-25T00:27:40;101984.60;;;0.28;100.00
49779;BME280;36217;60.232;24.776;2023-01-25T00:30:08;101974.76;;;0.17;100.00
49779;BME280;36217;60.232;24.776;2023-01-25T00:32:46;101954.98;;;0.39;100.00
49779;BME280;36217;60.232;24.776;2023-01-25T00:35:14;101950.40;;;0.48;100.00
49779;BME280;36217;60.232;24.776;2023-01-25T00:37:43;101939.54;;;0.50;100.00
49779;BME280;36217;60.232;24.776;2023-01-25T00:40:12;101925.87;;;0.54;100.00
49779;BME280;36217;60.232;24.776;2023-01-25T00:42:39;101923.56;;;0.16;100.00
49779;BME280;36217;60.232;24.776;2023-01-25T00:45:10;101919.10;;;0.31;100.00
49779;BME280;36217;60.232;24.776;2023-01-25T00:47:37;101904.71;;;0.43;100.00
49779;BME280;36217;60.232;24.776;2023-01-25T00:50:06;101903.52;;;0.64;100.00
49779;BME280;36217;60.232;24.776;2023-01-25T00:52:34;101890.24;;;0.63;100.00
49779;BME280;36217;60.232;24.776;2023-01-25T00:55:01;101897.82;;;0.55;100.00
49779;BME280;36217;60.232;24.776;2023-01-25T00:57:28;101903.74;;;0.37;100.00
49779;BME280;36217;60.232;24.776;2023-01-25T00:59:56;101902.88;;;0.56;100.00
49779;BME280;36217;60.232;24.776;2023-01-25T01:02:23;101895.54;;;0.58;100.00
49779;BME280;36217;60.232;24.776;2023-01-25T01:04:50;101891.61;;;0.56;100.00
49779;BME280;36217;60.232;24.776;2023-01-25T01:07:17;101883.96;;;0.47;100.00
49779;BME280;36217;60.232;24.776;2023-01-25T01:09:44;101883.26;;;0.43;100.00
49779;BME280;36217;60.232;24.776;2023-01-25T01:12:12;101887.15;;;0.31;100.00
49779;BME280;36217;60.232;24.776;2023-01-25T01:14:39;101886.39;;;0.09;100.00
49779;BME280;36217;60.232;24.776;2023-01-25T01:17:06;101883.47;;;0.24;100.00
49779;BME280;36217;60.232;24.776;2023-01-25T01:19:33;101874.07;;;0.34;100.00
49779;BME280;36217;60.232;24.776;2023-01-25T01:22:00;101876.52;;;0.41;100.00
49779;BME280;36217;60.232;24.776;2023-01-25T01:24:28;101873.88;;;0.57;100.00
49779;BME280;36217;60.232;24.776;2023-01-25T01:26:55;101865.59;;;0.33;100.00
49779;BME280;36217;60.232;24.776;2023-01-25T01:29:22;101859.40;;;0.55;100.00
49779;BME280;36217;60.232;24.776;2023-01-25T01:31:49;101856.62;;;0.53;100.00
49779;BME280;36217;60.232;24.776;2023-01-25T01:34:17;101852.80;;;0.45;100.00
49779;BME280;36217;60.232;24.776;2023-01-25T01:36:44;101846.23;;;0.49;100.00
49779;BME280;36217;60.232;24.776;2023-01-25T01:39:11;101845.11;;;0.28;100.00
49779;BME280;36217;60.232;24.776;2023-01-25T01:41:38;101844.08;;;0.28;100.00
49779;BME280;36217;60.232;24.776;2023-01-25T01:44:08;101835.90;;;0.24;100.00
49779;BME280;36217;60.232;24.776;2023-01-25T01:46:40;101824.51;;;0.25;100.00
49779;BME280;36217;60.232;24.776;2023-01-25T01:49:12;101839.30;;;0.63;100.00
49779;BME280;36217;60.232;24.776;2023-01-25T01:51:45;101837.59;;;0.70;100.00
49779;BME280;36217;60.232;24.776;2023-01-25T01:54:17;101835.57;;;0.32;100.00
49779;BME280;36217;60.232;24.776;2023-01-25T01:56:49;101813.67;;;0.46;100.00
49779;BME280;36217;60.232;24.776;2023-01-25T01:59:18;101798.79;;;0.65;100.00
49779;BME280;36217;60.232;24.776;2023-01-25T02:01:47;101795.28;;;0.48;100.00
49779;BME280;36217;60.232;24.776;2023-01-25T02:04:15;101794.05;;;0.55;100.00
49779;BME280;36217;60.232;24.776;2023-01-25T02:06:47;101793.37;;;0.28;100.00
49779;BME280;36217;60.232;24.776;2023-01-25T02:09:18;101790.08;;;0.56;100.00
49779;BME280;36217;60.232;24.776;2023-01-25T02:11:47;101778.68;;;0.38;100.00
49779;BME280;36217;60.232;24.776;2023-01-25T02:14:16;101773.45;;;0.62;100.00
49779;BME280;36217;60.232;24.776;2023-01-25T02:16:44;101768.08;;;0.79;100.00
49779;BME280;36217;60.232;24.776;2023-01-25T02:19:16;101766.22;;;0.51;100.00
49779;BME280;36217;60.232;24.776;2023-01-25T02:21:46;101761.67;;;0.55;100.00
49779;BME280;36217;60.232;24.776;2023-01-25T02:24:18;101753.29;;;0.52;100.00
49779;BME280;36217;60.232;24.776;2023-01-25T02:26:49;101751.37;;;0.59;100.00
49779;BME280;36217;60.232;24.776;2023-01-25T02:29:17;101748.04;;;0.73;100.00
49779;BME280;36217;60.232;24.776;2023-01-25T02:31:46;101747.87;;;0.65;100.00
49779;BME280;36217;60.232;24.776;2023-01-25T02:34:13;101734.71;;;0.73;100.00
49779;BME280;36217;60.232;24.776;2023-01-25T02:36:40;101729.27;;;0.48;100.00
49779;BME280;36217;60.232;24.776;2023-01-25T02:39:10;101728.30;;;0.29;100.00
49779;BME280;36217;60.232;24.776;2023-01-25T02:41:40;101720.71;;;0.38;100.00
49779;BME280;36217;60.232;24.776;2023-01-25T02:44:11;101713.69;;;0.05;100.00
49779;BME280;36217;60.232;24.776;2023-01-25T02:46:40;101706.73;;;0.13;100.00
49779;BME280;36217;60.232;24.776;2023-01-25T02:49:09;101699.20;;;0.62;100.00
49779;BME280;36217;60.232;24.776;2023-01-25T02:51:38;101700.72;;;0.50;100.00
49779;BME280;36217;60.232;24.776;2023-01-25T02:54:07;101699.26;;;0.66;100.00
49779;BME280;36217;60.232;24.776;2023-01-25T02:56:36;101697.24;;;0.46;100.00
49779;BME280;36217;60.232;24.776;2023-01-25T02:59:04;101697.59;;;0.67;100.00
49779;BME280;36217;60.232;24.776;2023-01-25T03:01:31;101687.83;;;0.70;100.00
49779;BME280;36217;60.232;24.776;2023-01-25T03:03:58;101686.30;;;0.25;100.00
49779;BME280;36217;60.232;24.776;2023-01-25T03:06:25;101680.02;;;0.45;100.00
49779;BME280;36217;60.232;24.776;2023-01-25T03:08:52;101674.53;;;0.51;100.00
49779;BME280;36217;60.232;24.776;2023-01-25T03:11:19;101673.50;;;0.44;100.00
49779;BME280;36217;60.232;24.776;2023-01-25T03:13:47;101678.64;;;0.60;100.00
49779;BME280;36217;60.232;24.776;2023-01-25T03:16:14;101676.08;;;0.06;100.00
49779;BME280;36217;60.232;24.776;2023-01-25T03:18:41;101669.06;;;0.18;100.00
49779;BME280;36217;60.232;24.776;2023-01-25T03:21:10;101661.81;;;0.56;100.00
49779;BME280;36217;60.232;24.776;2023-01-25T03:23:38;101661.01;;;0.61;100.00
49779;BME280;36217;60.232;24.776;2023-01-25T03:26:07;101660.19;;;0.35;100.00
49779;BME280;36217;60.232;24.776;2023-01-25T03:28:35;101658.91;;;0.70;100.00
49779;BME280;36217;60.232;24.776;2023-01-25T03:31:02;101648.27;;;0.68;100.00
49779;BME280;36217;60.232;24.776;2023-01-25T03:33:31;101641.21;;;0.71;100.00
49779;BME280;36217;60.232;24.776;2023-01-25T03:35:58;101639.57;;;0.64;100.00
49779;BME280;36217;60.232;24.776;2023-01-25T03:38:26;101638.16;;;0.56;100.00
49779;BME280;36217;60.232;24.776;2023-01-25T03:40:54;101628.68;;;0.51;100.00
49779;BME280;36217;60.232;24.776;2023-01-25T03:43:21;101628.27;;;0.52;100.00
49779;BME280;36217;60.232;24.776;2023-01-25T03:45:51;101622.53;;;0.71;100.00
49779;BME280;36217;60.232;24.776;2023-01-25T03:48:19;101609.56;;;0.58;100.00
49779;BME280;36217;60.232;24.776;2023-01-25T03:50:48;101613.53;;;0.82;100.00
49779;BME280;36217;60.232;24.776;2023-01-25T03:53:21;101616.64;;;0.86;100.00
49779;BME280;36217;60.232;24.776;2023-01-25T03:55:48;101614.78;;;0.68;100.00
49779;BME280;36217;60.232;24.776;2023-01-25T03:58:16;101609.94;;;0.73;100.00
49779;BME280;36217;60.232;24.776;2023-01-25T04:00:43;101605.73;;;0.02;100.00
49779;BME280;36217;60.232;24.776;2023-01-25T04:03:10;101603.82;;;0.82;100.00
49779;BME280;36217;60.232;24.776;2023-01-25T04:05:37;101588.96;;;0.71;100.00
49779;BME280;36217;60.232;24.776;2023-01-25T04:08:05;101586.43;;;0.96;100.00
49779;BME280;36217;60.232;24.776;2023-01-25T04:10:32;101584.35;;;0.92;100.00
49779;BME280;36217;60.232;24.776;2023-01-25T04:12:59;101585.46;;;0.41;100.00
49779;BME280;36217;60.232;24.776;2023-01-25T04:15:26;101587.19;;;0.63;100.00
49779;BME280;36217;60.232;24.776;2023-01-25T04:17:53;101588.85;;;0.75;100.00
49779;BME280;36217;60.232;24.776;2023-01-25T04:20:20;101592.59;;;0.76;100.00
49779;BME280;36217;60.232;24.776;2023-01-25T04:22:48;101590.39;;;1.16;100.00
49779;BME280;36217;60.232;24.776;2023-01-25T04:25:15;101588.20;;;0.28;100.00
49779;BME280;36217;60.232;24.776;2023-01-25T04:27:42;101577.01;;;0.75;100.00
49779;BME280;36217;60.232;24.776;2023-01-25T04:30:10;101571.87;;;1.01;100.00
49779;BME280;36217;60.232;24.776;2023-01-25T04:32:37;101573.09;;;0.60;100.00
49779;BME280;36217;60.232;24.776;2023-01-25T04:35:04;101563.70;;;0.89;100.00
49779;BME280;36217;60.232;24.776;2023-01-25T04:37:31;101562.31;;;0.69;100.00
49779;BME280;36217;60.232;24.776;2023-01-25T04:39:59;101556.90;;;0.55;100.00
49779;BME280;36217;60.232;24.776;2023-01-25T04:42:36;101551.67;;;0.98;100.00
49779;BME280;36217;60.232;24.776;2023-01-25T04:45:03;101539.63;;;0.85;100.00
49779;BME280;36217;60.232;24.776;2023-01-25T04:47:30;101532.71;;;0.92;100.00
49779;BME280;36217;60.232;24.776;2023-01-25T04:49:58;101523.63;;;0.35;100.00
49779;BME280;36217;60.232;24.776;2023-01-25T04:52:25;101514.73;;;0.72;100.00
49779;BME280;36217;60.232;24.776;2023-01-25T04:54:52;101501.79;;;0.70;100.00
49779;BME280;36217;60.232;24.776;2023-01-25T04:57:19;101492.36;;;1.03;100.00
49779;BME280;36217;60.232;24.776;2023-01-25T04:59:46;101488.30;;;0.64;100.00
49779;BME280;36217;60.232;24.776;2023-01-25T05:02:14;101480.96;;;0.82;100.00
49779;BME280;36217;60.232;24.776;2023-01-25T05:04:41;101477.13;;;0.92;100.00
49779;BME280;36217;60.232;24.776;2023-01-25T05:07:08;101478.75;;;0.59;100.00
49779;BME280;36217;60.232;24.776;2023-01-25T05:09:35;101474.03;;;1.03;100.00
49779;BME280;36217;60.232;24.776;2023-01-25T05:12:03;101459.36;;;0.52;100.00
49779;BME280;36217;60.232;24.776;2023-01-25T05:14:30;101447.23;;;0.70;100.00
49779;BME280;36217;60.232;24.776;2023-01-25T05:16:56;101440.81;;;0.72;100.00
49779;BME280;36217;60.232;24.776;2023-01-25T05:19:24;101432.65;;;0.87;100.00
49779;BME280;36217;60.232;24.776;2023-01-25T05:21:51;101435.97;;;0.33;100.00
49779;BME280;36217;60.232;24.776;2023-01-25T05:24:18;101425.89;;;0.71;100.00
49779;BME280;36217;60.232;24.776;2023-01-25T05:26:45;101425.15;;;0.82;100.00
49779;BME280;36217;60.232;24.776;2023-01-25T05:29:12;101410.13;;;1.20;100.00
49779;BME280;36217;60.232;24.776;2023-01-25T05:31:40;101392.89;;;0.99;100.00
49779;BME280;36217;60.232;24.776;2023-01-25T05:34:07;101387.65;;;1.74;100.00
49779;BME280;36217;60.232;24.776;2023-01-25T05:36:35;101384.84;;;1.52;100.00
49779;BME280;36217;60.232;24.776;2023-01-25T05:39:22;101382.43;;;1.64;100.00
49779;BME280;36217;60.232;24.776;2023-01-25T05:41:50;101386.67;;;2.08;100.00
49779;BME280;36217;60.232;24.776;2023-01-25T05:44:17;101369.09;;;1.91;100.00
49779;BME280;36217;60.232;24.776;2023-01-25T05:46:44;101372.53;;;2.02;100.00
49779;BME280;36217;60.232;24.776;2023-01-25T05:49:11;101370.72;;;2.09;100.00
49779;BME280;36217;60.232;24.776;2023-01-25T05:51:39;101373.41;;;2.10;100.00
49779;BME280;36217;60.232;24.776;2023-01-25T05:54:07;101369.81;;;2.32;100.00
49779;BME280;36217;60.232;24.776;2023-01-25T05:56:56;101361.18;;;2.46;100.00
49779;BME280;36217;60.232;24.776;2023-01-25T05:59:22;101359.27;;;2.22;100.00
49779;BME280;36217;60.232;24.776;2023-01-25T06:01:51;101366.50;;;2.32;100.00
49779;BME280;36217;60.232;24.776;2023-01-25T06:04:18;101365.29;;;2.46;100.00
49779;BME280;36217;60.232;24.776;2023-01-25T06:06:45;101375.06;;;2.47;100.00
49779;BME280;36217;60.232;24.776;2023-01-25T06:09:13;101373.53;;;2.33;100.00
49779;BME280;36217;60.232;24.776;2023-01-25T06:11:42;101394.06;;;2.47;100.00
49779;BME280;36217;60.232;24.776;2023-01-25T06:14:09;101398.41;;;2.41;100.00
49779;BME280;36217;60.232;24.776;2023-01-25T06:16:37;101399.87;;;2.59;100.00
49779;BME280;36217;60.232;24.776;2023-01-25T06:19:04;101390.38;;;2.48;100.00
49779;BME280;36217;60.232;24.776;2023-01-25T06:21:32;101374.09;;;2.55;100.00
49779;BME280;36217;60.232;24.776;2023-01-25T06:23:59;101365.61;;;2.31;100.00
49779;BME280;36217;60.232;24.776;2023-01-25T06:26:26;101369.28;;;2.65;100.00
49779;BME280;36217;60.232;24.776;2023-01-25T06:28:53;101378.80;;;2.38;100.00
49779;BME280;36217;60.232;24.776;2023-01-25T06:31:20;101378.35;;;2.59;100.00
49779;BME280;36217;60.232;24.776;2023-01-25T06:33:56;101377.18;;;2.59;100.00
49779;BME280;36217;60.232;24.776;2023-01-25T06:36:44;101386.90;;;2.24;100.00
49779;BME280;36217;60.232;24.776;2023-01-25T06:39:11;101390.19;;;2.91;100.00
49779;BME280;36217;60.232;24.776;2023-01-25T06:41:38;101386.96;;;2.37;100.00
49779;BME280;36217;60.232;24.776;2023-01-25T06:44:05;101391.39;;;2.79;100.00
49779;BME280;36217;60.232;24.776;2023-01-25T06:46:32;101391.69;;;2.45;100.00
49779;BME280;36217;60.232;24.776;2023-01-25T06:48:59;101375.61;;;2.69;100.00
49779;BME280;36217;60.232;24.776;2023-01-25T06:51:26;101360.53;;;2.59;100.00
49779;BME280;36217;60.232;24.776;2023-01-25T06:53:53;101352.47;;;2.34;100.00
49779;BME280;36217;60.232;24.776;2023-01-25T06:56:21;101351.32;;;2.25;100.00
49779;BME280;36217;60.232;24.776;2023-01-25T06:58:49;101351.66;;;2.68;100.00
49779;BME280;36217;60.232;24.776;2023-01-25T07:01:19;101341.42;;;2.74;100.00
49779;BME280;36217;60.232;24.776;2023-01-25T07:03:48;101336.71;;;2.83;100.00
49779;BME280;36217;60.232;24.776;2023-01-25T07:06:15;101335.87;;;2.84;100.00
49779;BME280;36217;60.232;24.776;2023-01-25T07:08:42;101335.21;;;2.53;100.00
49779;BME280;36217;60.232;24.776;2023-01-25T07:11:11;101326.15;;;2.63;100.00
49779;BME280;36217;60.232;24.776;2023-01-25T07:13:39;101324.99;;;2.69;100.00
49779;BME280;36217;60.232;24.776;2023-01-25T07:16:10;101321.77;;;2.69;100.00
49779;BME280;36217;60.232;24.776;2023-01-25T07:18:38;101311.28;;;2.74;100.00
49779;BME280;36217;60.232;24.776;2023-01-25T07:21:06;101307.81;;;2.72;100.00
49779;BME280;36217;60.232;24.776;2023-01-25T07:23:34;101305.24;;;3.00;100.00
49779;BME280;36217;60.232;24.776;2023-01-25T07:26:23;101300.93;;;2.99;100.00
49779;BME280;36217;60.232;24.776;2023-01-25T07:28:52;101308.02;;;3.03;100.00
49779;BME280;36217;60.232;24.776;2023-01-25T07:31:20;101303.90;;;2.81;100.00
49779;BME280;36217;60.232;24.776;2023-01-25T07:33:48;101291.89;;;3.05;100.00
49779;BME280;36217;60.232;24.776;2023-01-25T07:36:15;101292.96;;;3.08;100.00
49779;BME280;36217;60.232;24.776;2023-01-25T07:38:42;101287.57;;;3.03;100.00
49779;BME280;36217;60.232;24.776;2023-01-25T07:41:09;101291.64;;;3.09;100.00
49779;BME280;36217;60.232;24.776;2023-01-25T07:43:36;101288.34;;;3.02;100.00
49779;BME280;36217;60.232;24.776;2023-01-25T07:46:05;101287.53;;;2.93;100.00
49779;BME280;36217;60.232;24.776;2023-01-25T07:48:33;101271.46;;;2.88;100.00
49779;BME280;36217;60.232;24.776;2023-01-25T07:51:02;101270.22;;;2.90;100.00
49779;BME280;36217;60.232;24.776;2023-01-25T07:53:30;101267.73;;;3.25;100.00
49779;BME280;36217;60.232;24.776;2023-01-25T07:55:58;101262.66;;;3.04;100.00
49779;BME280;36217;60.232;24.776;2023-01-25T07:58:24;101255.30;;;3.00;100.00
49779;BME280;36217;60.232;24.776;2023-01-25T08:00:52;101244.91;;;3.19;100.00
49779;BME280;36217;60.232;24.776;2023-01-25T08:03:19;101244.49;;;3.00;100.00
49779;BME280;36217;60.232;24.776;2023-01-25T08:05:46;101237.46;;;3.17;100.00
49779;BME280;36217;60.232;24.776;2023-01-25T08:08:13;101242.91;;;3.01;100.00
49779;BME280;36217;60.232;24.776;2023-01-25T08:10:40;101239.98;;;2.90;100.00
49779;BME280;36217;60.232;24.776;2023-01-25T08:13:07;101238.25;;;2.76;100.00
49779;BME280;36217;60.232;24.776;2023-01-25T08:15:36;101231.97;;;2.81;100.00
49779;BME280;36217;60.232;24.776;2023-01-25T08:18:03;101234.76;;;3.16;100.00
49779;BME280;36217;60.232;24.776;2023-01-25T08:20:30;101235.51;;;3.07;100.00
49779;BME280;36217;60.232;24.776;2023-01-25T08:22:57;101226.54;;;2.99;100.00
49779;BME280;36217;60.232;24.776;2023-01-25T08:25:24;101221.82;;;3.02;100.00
49779;BME280;36217;60.232;24.776;2023-01-25T08:27:52;101225.15;;;3.18;100.00
49779;BME280;36217;60.232;24.776;2023-01-25T08:30:19;101218.85;;;3.50;100.00
49779;BME280;36217;60.232;24.776;2023-01-25T08:32:46;101218.18;;;3.18;100.00
49779;BME280;36217;60.232;24.776;2023-01-25T08:35:13;101215.93;;;3.05;100.00
49779;BME280;36217;60.232;24.776;2023-01-25T08:37:40;101212.40;;;3.27;100.00
49779;BME280;36217;60.232;24.776;2023-01-25T08:40:09;101202.59;;;3.52;100.00
49779;BME280;36217;60.232;24.776;2023-01-25T08:42:37;101200.46;;;3.44;100.00
49779;BME280;36217;60.232;24.776;2023-01-25T08:45:04;101202.18;;;3.21;100.00
49779;BME280;36217;60.232;24.776;2023-01-25T08:47:32;101205.39;;;3.24;100.00
49779;BME280;36217;60.232;24.776;2023-01-25T08:49:59;101199.78;;;3.29;100.00
49779;BME280;36217;60.232;24.776;2023-01-25T08:52:26;101195.37;;;3.05;100.00
49779;BME280;36217;60.232;24.776;2023-01-25T08:54:53;101192.23;;;3.41;100.00
49779;BME280;36217;60.232;24.776;2023-01-25T08:57:20;101192.02;;;3.33;100.00
49779;BME280;36217;60.232;24.776;2023-01-25T08:59:47;101190.58;;;3.39;100.00
49779;BME280;36217;60.232;24.776;2023-01-25T09:02:14;101185.57;;;3.25;100.00
49779;BME280;36217;60.232;24.776;2023-01-25T09:04:41;101184.15;;;2.88;100.00
49779;BME280;36217;60.232;24.776;2023-01-25T09:07:09;101172.47;;;3.61;100.00
49779;BME280;36217;60.232;24.776;2023-01-25T09:09:36;101175.52;;;3.23;100.00
49779;BME280;36217;60.232;24.776;2023-01-25T09:12:04;101164.48;;;3.13;100.00
49779;BME280;36217;60.232;24.776;2023-01-25T09:14:31;101161.25;;;3.38;100.00
49779;BME280;36217;60.232;24.776;2023-01-25T09:16:58;101161.93;;;3.14;100.00
49779;BME280;36217;60.232;24.776;2023-01-25T09:19:25;101156.92;;;3.53;100.00
49779;BME280;36217;60.232;24.776;2023-01-25T09:21:52;101156.10;;;3.18;100.00
49779;BME280;36217;60.232;24.776;2023-01-25T09:24:20;101158.49;;;3.14;100.00
49779;BME280;36217;60.232;24.776;2023-01-25T09:26:47;101146.00;;;3.73;100.00
49779;BME280;36217;60.232;24.776;2023-01-25T09:29:14;101141.88;;;3.44;100.00
49779;BME280;36217;60.232;24.776;2023-01-25T09:31:41;101147.11;;;3.94;100.00
49779;BME280;36217;60.232;24.776;2023-01-25T09:34:09;101134.74;;;3.27;100.00
49779;BME280;36217;60.232;24.776;2023-01-25T09:36:38;101137.23;;;3.71;100.00
49779;BME280;36217;60.232;24.776;2023-01-25T09:39:05;101141.58;;;3.25;100.00
49779;BME280;36217;60.232;24.776;2023-01-25T09:42:04;101142.18;;;3.43;100.00
49779;BME280;36217;60.232;24.776;2023-01-25T09:44:47;101139.35;;;3.57;100.00
49779;BME280;36217;60.232;24.776;2023-01-25T09:47:24;101129.83;;;3.45;100.00
49779;BME280;36217;60.232;24.776;2023-01-25T09:50:10;101130.77;;;3.80;100.00
49779;BME280;36217;60.232;24.776;2023-01-25T09:52:57;101126.27;;;3.72;100.00
49779;BME280;36217;60.232;24.776;2023-01-25T09:55:31;101129.27;;;3.83;100.00
49779;BME280;36217;60.232;24.776;2023-01-25T09:58:01;101144.35;;;3.69;100.00
49779;BME280;36217;60.232;24.776;2023-01-25T10:00:32;101138.43;;;3.67;100.00
49779;BME280;36217;60.232;24.776;2023-01-25T10:03:04;101141.38;;;3.57;100.00
49779;BME280;36217;60.232;24.776;2023-01-25T10:05:44;101138.95;;;3.81;100.00
49779;BME280;36217;60.232;24.776;2023-01-25T10:08:20;101132.58;;;3.74;100.00
49779;BME280;36217;60.232;24.776;2023-01-25T10:10:53;101124.56;;;3.72;100.00
49779;BME280;36217;60.232;24.776;2023-01-25T10:13:24;101115.82;;;3.67;100.00
49779;BME280;36217;60.232;24.776;2023-01-25T10:15:56;101112.98;;;3.69;100.00
49779;BME280;36217;60.232;24.776;2023-01-25T10:18:28;101105.72;;;3.78;100.00
49779;BME280;36217;60.232;24.776;2023-01-25T10:21:00;101110.80;;;3.21;100.00
49779;BME280;36217;60.232;24.776;2023-01-25T10:23:44;101106.46;;;3.81;100.00
49779;BME280;36217;60.232;24.776;2023-01-25T10:26:19;101102.16;;;3.69;100.00
49779;BME280;36217;60.232;24.776;2023-01-25T10:28:56;101092.05;;;3.82;100.00
49779;BME280;36217;60.232;24.776;2023-01-25T10:31:31;101091.96;;;3.65;100.00
49779;BME280;36217;60.232;24.776;2023-01-25T10:34:01;101086.17;;;3.69;100.00
49779;BME280;36217;60.232;24.776;2023-01-25T10:36:39;101071.84;;;3.74;100.00
49779;BME280;36217;60.232;24.776;2023-01-25T10:39:05;101066.31;;;3.62;100.00
49779;BME280;36217;60.232;24.776;2023-01-25T10:41:36;101075.07;;;3.94;100.00
49779;BME280;36217;60.232;24.776;2023-01-25T10:44:07;101076.67;;;3.98;100.00
49779;BME280;36217;60.232;24.776;2023-01-25T10:46:37;101084.81;;;3.89;100.00
49779;BME280;36217;60.232;24.776;2023-01-25T10:49:17;101078.01;;;3.83;100.00
49779;BME280;36217;60.232;24.776;2023-01-25T10:51:47;101073.08;;;4.10;100.00
49779;BME280;36217;60.232;24.776;2023-01-25T10:54:15;101064.40;;;3.75;100.00
49779;BME280;36217;60.232;24.776;2023-01-25T10:56:43;101064.94;;;4.07;100.00
49779;BME280;36217;60.232;24.776;2023-01-25T10:59:17;101061.83;;;3.91;100.00
49779;BME280;36217;60.232;24.776;2023-01-25T11:01:46;101060.44;;;3.73;100.00
49779;BME280;36217;60.232;24.776;2023-01-25T11:04:26;101062.56;;;3.98;100.00
49779;BME280;36217;60.232;24.776;2023-01-25T11:06:55;101054.47;;;3.48;100.00
49779;BME280;36217;60.232;24.776;2023-01-25T11:09:32;101052.61;;;3.85;100.00
49779;BME280;36217;60.232;24.776;2023-01-25T11:12:02;101054.36;;;3.98;100.00
49779;BME280;36217;60.232;24.776;2023-01-25T11:14:31;101053.89;;;3.91;100.00
49779;BME280;36217;60.232;24.776;2023-01-25T11:16:59;101062.92;;;4.12;100.00
49779;BME280;36217;60.232;24.776;2023-01-25T11:19:33;101053.41;;;3.64;100.00
49779;BME280;36217;60.232;24.776;2023-01-25T11:22:02;101059.65;;;3.96;100.00
49779;BME280;36217;60.232;24.776;2023-01-25T11:24:31;101056.88;;;3.82;100.00
49779;BME280;36217;60.232;24.776;2023-01-25T11:27:15;101043.19;;;4.37;100.00
49779;BME280;36217;60.232;24.776;2023-01-25T11:29:43;101026.59;;;3.66;100.00
49779;BME280;36217;60.232;24.776;2023-01-25T11:32:16;101020.65;;;3.98;100.00
49779;BME280;36217;60.232;24.776;2023-01-25T11:34:43;101018.23;;;3.71;100.00
49779;BME280;36217;60.232;24.776;2023-01-25T11:37:24;101022.25;;;3.97;100.00
49779;BME280;36217;60.232;24.776;2023-01-25T11:40:00;101021.52;;;4.09;100.00
49779;BME280;36217;60.232;24.776;2023-01-25T11:42:39;101016.99;;;4.15;100.00
49779;BME280;36217;60.232;24.776;2023-01-25T11:45:20;101020.66;;;3.77;100.00
49779;BME280;36217;60.232;24.776;2023-01-25T11:48:05;101024.57;;;4.16;100.00
49779;BME280;36217;60.232;24.776;2023-01-25T11:50:39;101015.39;;;4.33;100.00
49779;BME280;36217;60.232;24.776;2023-01-25T11:53:24;101015.90;;;4.31;100.00
49779;BME280;36217;60.232;24.776;2023-01-25T11:55:58;101008.95;;;4.02;100.00
49779;BME280;36217;60.232;24.776;2023-01-25T11:59:05;100997.09;;;3.84;100.00
49779;BME280;36217;60.232;24.776;2023-01-25T12:01:37;101000.95;;;4.11;100.00
49779;BME280;36217;60.232;24.776;2023-01-25T12:05:30;100999.07;;;4.24;100.00
49779;BME280;36217;60.232;24.776;2023-01-25T12:08:07;100995.44;;;3.85;100.00
49779;BME280;36217;60.232;24.776;2023-01-25T12:10:45;100991.32;;;4.03;100.00
49779;BME280;36217;60.232;24.776;2023-01-25T12:13:23;100989.45;;;3.64;100.00
49779;BME280;36217;60.232;24.776;2023-01-25T12:16:08;100993.03;;;3.76;100.00
49779;BME280;36217;60.232;24.776;2023-01-25T12:18:57;101005.81;;;4.04;100.00
49779;BME280;36217;60.232;24.776;2023-01-25T12:21:40;101009.63;;;3.61;100.00
49779;BME280;36217;60.232;24.776;2023-01-25T12:24:36;100993.33;;;3.84;100.00
49779;BME280;36217;60.232;24.776;2023-01-25T12:27:17;100984.27;;;4.05;100.00
49779;BME280;36217;60.232;24.776;2023-01-25T12:29:51;100991.78;;;4.11;100.00
49779;BME280;36217;60.232;24.776;2023-01-25T12:32:25;100987.31;;;3.91;100.00
49779;BME280;36217;60.232;24.776;2023-01-25T12:35:03;100979.41;;;3.72;100.00
49779;BME280;36217;60.232;24.776;2023-01-25T12:37:40;100983.36;;;4.15;100.00
49779;BME280;36217;60.232;24.776;2023-01-25T12:40:13;100979.35;;;4.16;100.00
49779;BME280;36217;60.232;24.776;2023-01-25T12:42:45;100978.17;;;3.63;100.00
49779;BME280;36217;60.232;24.776;2023-01-25T12:45:19;100969.92;;;4.04;100.00
49779;BME280;36217;60.232;24.776;2023-01-25T12:47:52;100966.57;;;3.62;100.00
49779;BME280;36217;60.232;24.776;2023-01-25T12:50:32;100968.98;;;4.19;100.00
49779;BME280;36217;60.232;24.776;2023-01-25T12:53:09;100971.29;;;4.15;100.00
49779;BME280;36217;60.232;24.776;2023-01-25T12:55:39;100974.00;;;4.13;100.00